Dobrodošli na spletni strani vremenske postaje Senovo. Vse informacije so informativnega značaja, saj vremenska postaja ni del državne mreže meteoroloških postaj. AKTUALNIH OBVESTIL NI.


Sneg/Led Od: 22-02-2018 00:00 Do: 23-02-2018 23:59 Opozorilo za: Sneg/Led Stopnja: Rumena info button
Veter Od: 22-02-2018 00:00 Do: 23:59 Opozorilo za: Veter Stopnja: Rumena info button

Pogled proti Armezu več informacij Pogled proti Armezu


Lisca več informacij Lisca


Radar strel več informacij blitzortung!


opozorilo za sneg/led več informacij rain snow radar


Obiščite še:

Template documentation
and downloads

And another site



Weather Underground, zgodovina - Tekstovno

Dnevni povzetek za December 15, 2017 Enote:  Metrično    Angleško   Obe
« Predhodni Dan
Naslednji Dan »
Dnevni Tedenski Mesečni Letni Po meri
  Višja: Nižja: Povprečje:
Temperatura: -17.8 °C -17 °C -14.7 °C
Točka rosišča: -17.8 °C -17.9 °C -15.6 °C
Vlažnost: Humidity % 80 % 90 %
Hitrost vetra: 0 km/h 0 km/h 5.3 km/h
Sunki vetra: 0 km/h - -
Veter:- - South
Zračni tlak: 0 hPa 0 hPa -
Padavine: 637.54 mm    
Historical Graphs
 
 
Tabelarni podarki za December 15, 2017
Čas Temperatura Točka rosišča Zračni tlak Veter Hitrost vetra Sunki vetra Vlažnost Intenziteta padavin (urna)
-17.8 °C -17.8 °C 0 hPa Calm     Humidity % 0 mm
00:02 -15.7 °C -16.3 °C 33856.6 hPa Calm     93 % 7.62 mm
00:07 -15.7 °C -16.3 °C 33856.6 hPa Calm     93 % 7.62 mm
00:12 -15.8 °C -16.3 °C 33856.6 hPa Calm     93 % 7.62 mm
00:17 -15.8 °C -16.4 °C 33856.6 hPa South 0.3 km/h 2.9 km/h 93 % 7.62 mm
00:22 -15.9 °C -16.4 °C 33856.6 hPa SW 1.6 km/h 6.9 km/h 93 % 7.62 mm
00:27 -15.9 °C -16.5 °C 33822.8 hPa WSW 1.3 km/h 6.9 km/h 93 % 7.62 mm
00:32 -15.9 °C -16.5 °C 33822.8 hPa Calm     93 % 7.62 mm
00:37 -15.9 °C -16.5 °C 33822.8 hPa Calm     93 % 7.62 mm
00:42 -15.9 °C -16.5 °C 33822.8 hPa Calm     93 % 7.62 mm
00:47 -16.1 °C -16.6 °C 33822.8 hPa Calm     93 % 7.62 mm
00:52 -16.1 °C -16.6 °C 33822.8 hPa Calm     93 % 7.62 mm
00:57 -16.1 °C -16.6 °C 33822.8 hPa Calm     93 % 0 mm
01:02 -16.1 °C -16.6 °C 33822.8 hPa Calm     93 % 0 mm
01:07 -16.1 °C -16.6 °C 33822.8 hPa Calm     93 % 0 mm
01:12 -16.1 °C -16.6 °C 33822.8 hPa Calm     93 % 0 mm
01:13 -16.1 °C -16.6 °C 33822.8 hPa Calm     93 % 0 mm
01:18 -16.1 °C -16.6 °C 33822.8 hPa Calm     93 % 0 mm
01:21 -16.1 °C -16.7 °C 33822.8 hPa Calm     93 % 0 mm
01:26 -16.1 °C -16.7 °C 33822.8 hPa Calm     93 % 0 mm
01:27 -16.1 °C -16.7 °C 33822.8 hPa Calm     93 % 0 mm
01:32 -16.1 °C -16.7 °C 33822.8 hPa Calm     93 % 0 mm
01:37 -16.1 °C -16.7 °C 33822.8 hPa Calm     93 % 0 mm
01:42 -16.1 °C -16.7 °C 33822.8 hPa Calm     93 % 0 mm
01:47 -16.1 °C -16.6 °C 33822.8 hPa NNW 0.5 km/h 5.1 km/h 94 % 0 mm
01:52 -16.1 °C -16.6 °C 33822.8 hPa NNW 0.3 km/h 5.1 km/h 94 % 0 mm
01:57 -16.1 °C -16.6 °C 33822.8 hPa NNW 0.3 km/h 3.4 km/h 94 % 0 mm
02:02 -16.1 °C -16.6 °C 33822.8 hPa NNW 0.3 km/h 3.4 km/h 94 % 0 mm
02:07 -16.1 °C -16.6 °C 33822.8 hPa Calm     94 % 0 mm
02:12 -16.1 °C -16.6 °C 33822.8 hPa Calm     94 % 0 mm
02:18 -16.1 °C -16.6 °C 33822.8 hPa NNE 0.3 km/h 4.2 km/h 94 % 0 mm
02:23 -16.1 °C -16.6 °C 33822.8 hPa NNE 0.8 km/h 4.2 km/h 94 % 0 mm
02:28 -16.1 °C -16.6 °C 33822.8 hPa NW 0.8 km/h 4.2 km/h 94 % 0 mm
02:29 -16.1 °C -16.6 °C 33822.8 hPa NW 0.8 km/h 4.2 km/h 94 % 0 mm
02:34 -16.1 °C -16.6 °C 33822.8 hPa NNW 0.3 km/h 4.2 km/h 94 % 0 mm
02:39 -16.1 °C -16.6 °C 33822.8 hPa Calm     94 % 0 mm
02:44 -16.1 °C -16.6 °C 33822.8 hPa Calm   5.1 km/h 94 % 0 mm
02:49 -16.1 °C -16.6 °C 33822.8 hPa NNW 0.5 km/h 5.1 km/h 94 % 0 mm
02:54 -16.2 °C -16.6 °C 33822.8 hPa NNW 0.5 km/h 5.1 km/h 95 % 0 mm
02:59 -16.2 °C -16.6 °C 33788.9 hPa Calm     95 % 0 mm
03:04 -16.2 °C -16.6 °C 33788.9 hPa Calm     95 % 0 mm
03:09 -16.3 °C -16.7 °C 33788.9 hPa Calm     95 % 0 mm
03:14 -16.3 °C -16.7 °C 33751.6 hPa Calm     95 % 0 mm
03:19 -16.3 °C -16.7 °C 33751.6 hPa Calm     95 % 0 mm
03:24 -16.3 °C -16.7 °C 33751.6 hPa Calm     95 % 0 mm
03:30 -16.4 °C -16.8 °C 33751.6 hPa Calm     95 % 0 mm
03:35 -16.4 °C -16.8 °C 33751.6 hPa Calm     95 % 0 mm
03:40 -16.4 °C -16.8 °C 33751.6 hPa Calm     95 % 0 mm
03:45 -16.4 °C -16.8 °C 33751.6 hPa Calm     95 % 0 mm
03:50 -16.5 °C -16.9 °C 33751.6 hPa Calm     95 % 0 mm
03:55 -16.5 °C -16.9 °C 33751.6 hPa WNW 0.3 km/h 2.3 km/h 95 % 0 mm
04:00 -16.5 °C -16.9 °C 33751.6 hPa WNW 0.3 km/h 2.3 km/h 95 % 0 mm
04:05 -16.5 °C -16.9 °C 33751.6 hPa Calm     95 % 0 mm
04:10 -16.5 °C -16.9 °C 33751.6 hPa Calm     95 % 0 mm
04:15 -16.4 °C -16.8 °C 33751.6 hPa Calm     95 % 7.62 mm
04:20 -16.3 °C -16.7 °C 33751.6 hPa Calm     95 % 7.62 mm
04:25 -16.3 °C -16.7 °C 33751.6 hPa Calm     95 % 7.62 mm
04:30 -16.3 °C -16.7 °C 33751.6 hPa NW 0.3 km/h 3.4 km/h 95 % 7.62 mm
04:35 -16.3 °C -16.6 °C 33751.6 hPa NW 1 km/h 6.9 km/h 96 % 7.62 mm
04:40 -16.1 °C -16.5 °C 33751.6 hPa NW 0.8 km/h 6.9 km/h 95 % 7.62 mm
04:45 -16 °C -16.3 °C 33751.6 hPa Calm     96 % 7.62 mm
04:50 -15.9 °C -16.2 °C 33751.6 hPa Calm     96 % 7.62 mm
04:55 -15.9 °C -16.2 °C 33751.6 hPa Calm     96 % 7.62 mm
05:00 -15.8 °C -16.2 °C 33751.6 hPa Calm     96 % 7.62 mm
05:05 -15.8 °C -16.1 °C 33751.6 hPa Calm     96 % 7.62 mm
05:11 -15.7 °C -16 °C 33751.6 hPa Calm     96 % 7.62 mm
05:16 -15.6 °C -15.9 °C 33751.6 hPa Calm     96 % 0 mm
05:21 -15.6 °C -15.9 °C 33751.6 hPa Calm     96 % 0 mm
05:26 -15.5 °C -15.8 °C 33751.6 hPa Calm     96 % 0 mm
05:31 -15.5 °C -15.8 °C 33751.6 hPa Calm   5.1 km/h 96 % 0 mm
05:36 -15.4 °C -15.7 °C 33751.6 hPa WNW 0.3 km/h 5.1 km/h 96 % 0 mm
05:41 -15.3 °C -15.7 °C 33751.6 hPa WNW 0.3 km/h 2.9 km/h 96 % 0 mm
05:46 -15.3 °C -15.7 °C 33731.3 hPa Calm     96 % 0 mm
05:47 -15.3 °C -15.7 °C 33731.3 hPa Calm     96 % 0 mm
05:52 -15.4 °C -15.7 °C 33731.3 hPa Calm   3.4 km/h 96 % 0 mm
05:57 -15.4 °C -15.7 °C 33751.6 hPa WNW 1.8 km/h 8.9 km/h 96 % 0 mm
06:02 -15.4 °C -15.7 °C 33751.6 hPa WNW 1.8 km/h 8.9 km/h 96 % 0 mm
06:07 -15.4 °C -15.7 °C 33751.6 hPa Calm     96 % 0 mm
06:12 -15.4 °C -15.7 °C 33731.3 hPa Calm     96 % 0 mm
06:18 -15.4 °C -15.7 °C 33731.3 hPa WNW 0.8 km/h 6.4 km/h 96 % 0 mm
06:23 -15.4 °C -15.7 °C 33731.3 hPa WNW 0.8 km/h 6.4 km/h 96 % 0 mm
06:28 -15.4 °C -15.7 °C 33731.3 hPa Calm     96 % 0 mm
06:33 -15.4 °C -15.6 °C 33731.3 hPa Calm   6.4 km/h 97 % 0 mm
06:38 -15.4 °C -15.6 °C 33731.3 hPa SW 0.5 km/h 6.4 km/h 97 % 0 mm
06:43 -15.4 °C -15.6 °C 33731.3 hPa NNW 0.3 km/h 3.4 km/h 97 % 0 mm
06:48 -15.4 °C -15.6 °C 33731.3 hPa Calm   3.4 km/h 97 % 0 mm
06:53 -15.4 °C -15.6 °C 33731.3 hPa Calm     97 % 0 mm
06:59 -15.4 °C -15.6 °C 0 hPa Calm     97 % 0 mm
07:04 -15.4 °C -15.6 °C 33751.6 hPa Calm     97 % 0 mm
07:08 -15.4 °C -15.6 °C 33751.6 hPa Calm     97 % 0 mm
07:13 -15.4 °C -15.7 °C 33731.3 hPa Calm     97 % 0 mm
07:17 -15.4 °C -15.6 °C 33731.3 hPa Calm     97 % 0 mm
07:23 -15.4 °C -15.6 °C 33731.3 hPa Calm     97 % 0 mm
07:28 -15.4 °C -15.6 °C 33751.6 hPa Calm     97 % 0 mm
07:33 -15.4 °C -15.6 °C 33751.6 hPa Calm     97 % 0 mm
07:38 -15.3 °C -15.6 °C 33751.6 hPa Calm   4.2 km/h 97 % 0 mm
07:43 -15.3 °C -15.5 °C 33731.3 hPa Calm   4.2 km/h 97 % 0 mm
07:48 -15.2 °C -15.4 °C 33731.3 hPa NW 0.8 km/h 6.4 km/h 97 % 0 mm
07:53 -15.1 °C -15.3 °C 33731.3 hPa NW 1.6 km/h 8 km/h 97 % 0 mm
07:58 -15 °C -15.2 °C 33751.6 hPa NW 2.3 km/h 8 km/h 97 % 0 mm
08:03 -14.9 °C -15.2 °C 33751.6 hPa NW 4.2 km/h 12.2 km/h 97 % 0 mm
08:08 -14.8 °C -15.1 °C 33751.6 hPa NW 3.4 km/h 12.2 km/h 97 % 0 mm
08:13 -14.8 °C -15.1 °C 33751.6 hPa NW 1.8 km/h 9.8 km/h 97 % 0 mm
08:18 -14.7 °C -14.9 °C 33751.6 hPa NNW 1.3 km/h 9.8 km/h 97 % 0 mm
08:23 -14.7 °C -14.9 °C 33751.6 hPa WNW 0.3 km/h 6.9 km/h 97 % 0 mm
08:28 -14.6 °C -14.8 °C 33731.3 hPa WNW 1 km/h 7.6 km/h 97 % 0 mm
08:33 -14.6 °C -14.8 °C 33731.3 hPa WNW 1 km/h 7.6 km/h 97 % 0 mm
08:38 -14.5 °C -14.8 °C 33731.3 hPa NW 0.8 km/h 6.4 km/h 97 % 0 mm
08:43 -14.4 °C -14.7 °C 33731.3 hPa NW 2.1 km/h 6.9 km/h 97 % 0 mm
08:48 -14.4 °C -14.6 °C 33731.3 hPa NW 1.8 km/h 7.6 km/h 97 % 0 mm
08:53 -14.2 °C -14.5 °C 33731.3 hPa NW 3.9 km/h 12.7 km/h 97 % 0 mm
08:58 -14.1 °C -14.3 °C 33751.6 hPa NW 6.3 km/h 12.7 km/h 97 % 0 mm
09:03 -14.1 °C -14.3 °C 33751.6 hPa NW 3.9 km/h 12.2 km/h 97 % 0 mm
09:08 -13.9 °C -14.1 °C 33751.6 hPa NW 5.1 km/h 14.5 km/h 97 % 0 mm
09:13 -13.8 °C -14.1 °C 33751.6 hPa NW 7.2 km/h 14.5 km/h 97 % 0 mm
09:18 -13.7 °C -13.9 °C 33751.6 hPa WNW 6.9 km/h 14 km/h 97 % 0 mm
09:23 -13.6 °C -13.8 °C 33751.6 hPa WNW 6.4 km/h 14 km/h 97 % 0 mm
09:28 -13.4 °C -13.7 °C 33751.6 hPa NNW 3.9 km/h 10.3 km/h 97 % 0 mm
09:33 -13.2 °C -13.4 °C 33751.6 hPa NW 5.5 km/h 15.6 km/h 97 % 0 mm
09:38 -13.1 °C -13.4 °C 33751.6 hPa WNW 4.3 km/h 15.6 km/h 97 % 0 mm
09:43 -13 °C -13.2 °C 33731.3 hPa NNW 4.7 km/h 7.6 km/h 97 % 0 mm
09:48 -12.9 °C -13.2 °C 33731.3 hPa NW 3.4 km/h 7.6 km/h 97 % 0 mm
09:53 -12.8 °C -13.1 °C 33731.3 hPa WNW 2.1 km/h 7.6 km/h 97 % 0 mm
09:58 -12.7 °C -12.9 °C 33751.6 hPa NW 2.9 km/h 11.6 km/h 97 % 0 mm
10:03 -12.6 °C -12.9 °C 33751.6 hPa WNW 3.7 km/h 11.6 km/h 97 % 0 mm
10:08 -12.6 °C -12.8 °C 33751.6 hPa NW 2.1 km/h 7.6 km/h 97 % 0 mm
10:13 -12.5 °C -12.7 °C 33751.6 hPa NW 1 km/h 5.6 km/h 97 % 0 mm
10:18 -12.4 °C -12.7 °C 33751.6 hPa West 2.6 km/h 11.1 km/h 97 % 0 mm
10:23 -12.3 °C -12.6 °C 33751.6 hPa West 5 km/h 11.1 km/h 97 % 0 mm
10:28 -12.2 °C -12.4 °C 33751.6 hPa West 6 km/h 12.7 km/h 97 % 0 mm
10:33 -12.1 °C -12.4 °C 33751.6 hPa WSW 3.9 km/h 12.7 km/h 97 % 0 mm
10:38 -12.1 °C -12.3 °C 33751.6 hPa West 0.5 km/h 5.6 km/h 97 % 0 mm
10:43 -11.9 °C -12.2 °C 33751.6 hPa NNW 3.7 km/h 10.3 km/h 97 % 0 mm
10:48 -11.9 °C -12.1 °C 33751.6 hPa NW 4.3 km/h 10.3 km/h 97 % 0 mm
10:53 -11.8 °C -12.1 °C 33751.6 hPa West 3.7 km/h 9.3 km/h 97 % 0 mm
10:58 -11.8 °C -12.1 °C 33751.6 hPa WSW 3.4 km/h 9.3 km/h 97 % 0 mm
11:04 -11.8 °C -12.1 °C 33751.6 hPa West 3.9 km/h 9.8 km/h 97 % 0 mm
11:09 -11.8 °C -12.1 °C 33751.6 hPa NNW 4.2 km/h 9.8 km/h 96 % 0 mm
11:14 -11.7 °C -12.1 °C 33751.6 hPa WNW 1.8 km/h 9.3 km/h 96 % 0 mm
11:19 -11.7 °C -12.1 °C 33751.6 hPa WNW 1 km/h 7.6 km/h 96 % 0 mm
11:24 -11.7 °C -12.1 °C 33751.6 hPa North 2.9 km/h 8 km/h 96 % 0 mm
11:29 -11.7 °C -12.1 °C 33751.6 hPa NE 2.3 km/h 8 km/h 96 % 0 mm
11:34 -11.7 °C -12.1 °C 33751.6 hPa NNW 0.8 km/h 6.4 km/h 95 % 0 mm
11:39 -11.6 °C -12.1 °C 33751.6 hPa NNW 0.5 km/h 6.4 km/h 95 % 0 mm
11:44 -11.6 °C -12.1 °C 33751.6 hPa WNW 1.3 km/h 6.9 km/h 95 % 0 mm
11:49 -11.6 °C -12.1 °C 33751.6 hPa NNW 1.3 km/h 6.9 km/h 94 % 0 mm
11:54 -11.6 °C -12.1 °C 33751.6 hPa NNE 0.8 km/h 6.4 km/h 94 % 0 mm
11:59 -11.5 °C -12 °C 33751.6 hPa WNW 0.8 km/h 6.4 km/h 94 % 0 mm
12:04 -11.5 °C -12 °C 33751.6 hPa NW 1 km/h 6.9 km/h 94 % 0 mm
12:09 -11.5 °C -12.1 °C 33751.6 hPa NW 0.5 km/h 6.9 km/h 93 % 0 mm
12:14 -11.6 °C -12.2 °C 33751.6 hPa SSW 0.5 km/h 5.1 km/h 93 % 0 mm
12:19 -11.6 °C -12.2 °C 33751.6 hPa WSW 1.8 km/h 9.3 km/h 93 % 0 mm
12:24 -11.6 °C -12.3 °C 33751.6 hPa WSW 4.2 km/h 15.6 km/h 92 % 0 mm
12:29 -11.5 °C -12.2 °C 33751.6 hPa SW 6.9 km/h 18.7 km/h 92 % 0 mm
12:34 -11.5 °C -12.2 °C 33751.6 hPa SSW 10.3 km/h 26.7 km/h 92 % 0 mm
12:39 -11.4 °C -12.2 °C 33751.6 hPa SSW 11.6 km/h 26.7 km/h 91 % 0 mm
12:44 -11.4 °C -12.4 °C 33751.6 hPa SSW 8.9 km/h 15.6 km/h 89 % 0 mm
12:49 -11.4 °C -12.5 °C 33751.6 hPa WSW 11.9 km/h 39.4 km/h 88 % 0 mm
12:54 -11.4 °C -12.6 °C 33751.6 hPa WSW 15 km/h 39.4 km/h 87 % 7.62 mm
13:00 -11.6 °C -12.9 °C 33751.6 hPa WSW 13.5 km/h 31.9 km/h 85 % 12.7 mm
13:05 -11.6 °C -12.9 °C 33751.6 hPa West 10.1 km/h 22 km/h 85 % 12.7 mm
13:10 -11.6 °C -13.1 °C 33751.6 hPa SW 5.5 km/h 15 km/h 84 % 12.7 mm
13:15 -11.6 °C -13.2 °C 33751.6 hPa South 4.7 km/h 11.1 km/h 83 % 12.7 mm
13:20 -11.7 °C -13.2 °C 33751.6 hPa South 4.2 km/h 8.9 km/h 83 % 12.7 mm
13:25 -11.7 °C -13.2 °C 33751.6 hPa South 3.4 km/h 8 km/h 83 % 12.7 mm
13:30 -11.7 °C -13.3 °C 33751.6 hPa SSE 2.6 km/h 8 km/h 83 % 12.7 mm
13:34 -11.7 °C -13.3 °C 33751.6 hPa SSE 1.8 km/h 9.8 km/h 83 % 12.7 mm
13:39 -11.8 °C -13.3 °C 33751.6 hPa SSE 4.2 km/h 9.8 km/h 83 % 12.7 mm
13:44 -11.8 °C -13.4 °C 33731.3 hPa South 6 km/h 9.3 km/h 83 % 12.7 mm
13:49 -11.9 °C -13.4 °C 33731.3 hPa South 6 km/h 9.3 km/h 83 % 12.7 mm
13:54 -11.9 °C -13.4 °C 33731.3 hPa South 5.5 km/h 9.3 km/h 83 % 7.62 mm
13:59 -11.9 °C -13.4 °C 33751.6 hPa South 1.8 km/h 6.9 km/h 83 % 0 mm
14:04 -11.9 °C -13.4 °C 33751.6 hPa Calm   3.4 km/h 83 % 0 mm
14:10 -11.9 °C -13.4 °C 33751.6 hPa Calm     83 % 0 mm
14:15 -11.9 °C -13.5 °C 33751.6 hPa Calm     83 % 0 mm
14:20 -11.9 °C -13.4 °C 33751.6 hPa SE 0.3 km/h 6.4 km/h 84 % 0 mm
14:25 -11.9 °C -13.4 °C 33751.6 hPa ESE 1.6 km/h 6.4 km/h 84 % 0 mm
14:30 -11.9 °C -13.4 °C 33751.6 hPa East 3.4 km/h 8.9 km/h 84 % 0 mm
14:35 -12 °C -13.4 °C 33751.6 hPa ENE 3.4 km/h 8.9 km/h 84 % 0 mm
14:40 -12 °C -13.4 °C 33751.6 hPa ENE 2.1 km/h 8.9 km/h 84 % 0 mm
14:45 -12.1 °C -13.5 °C 33788.9 hPa NE 5.1 km/h 12.2 km/h 84 % 0 mm
14:50 -12.1 °C -13.5 °C 33788.9 hPa NE 6 km/h 12.2 km/h 84 % 0 mm
14:55 -12.1 °C -13.6 °C 33788.9 hPa ENE 3.1 km/h 11.1 km/h 84 % 0 mm
15:00 -12.1 °C -13.5 °C 33751.6 hPa ENE 6 km/h 16.9 km/h 84 % 0 mm
15:05 -12.1 °C -13.5 °C 33751.6 hPa ENE 7.2 km/h 16.9 km/h 84 % 0 mm
15:10 -12.1 °C -13.5 °C 33751.6 hPa East 8 km/h 26.7 km/h 84 % 0 mm
15:16 -12.2 °C -13.7 °C 33731.3 hPa ESE 15.8 km/h 26.7 km/h 84 % 0 mm
15:21 -12.4 °C -13.9 °C 33731.3 hPa ESE 16.1 km/h 25.4 km/h 84 % 0 mm
15:26 -12.6 °C -14.1 °C 33731.3 hPa East 16.3 km/h 26.7 km/h 83 % 0 mm
15:31 -12.9 °C -14.4 °C 33731.3 hPa East 19.2 km/h 33.2 km/h 83 % 0 mm
15:36 -13.1 °C -14.7 °C 33731.3 hPa East 20.3 km/h 33.6 km/h 82 % 0 mm
15:41 -13.2 °C -14.9 °C 33731.3 hPa East 18.8 km/h 33.6 km/h 81 % 0 mm
15:46 -13.3 °C -14.9 °C 33751.6 hPa ESE 16.3 km/h 27.2 km/h 81 % 0 mm
15:51 -13.4 °C -15.1 °C 33751.6 hPa ESE 15.3 km/h 25.4 km/h 81 % 0 mm
15:56 -13.5 °C -15.2 °C 33751.6 hPa ESE 15.3 km/h 25.4 km/h 81 % 0 mm
16:00 -13.6 °C -15.3 °C 33751.6 hPa ESE 15.8 km/h 26.7 km/h 80 % 0 mm
16:05 -13.6 °C -15.4 °C 33751.6 hPa East 15.6 km/h 26.7 km/h 80 % 0 mm
16:10 -13.6 °C -15.4 °C 33751.6 hPa ENE 15.6 km/h 27.2 km/h 80 % 7.62 mm
16:15 -13.7 °C -15.5 °C 33731.3 hPa ENE 16.6 km/h 27.2 km/h 80 % 12.7 mm
16:20 -13.8 °C -15.6 °C 33731.3 hPa ENE 15.8 km/h 26.7 km/h 80 % 25.4 mm
16:25 -13.9 °C -15.7 °C 33731.3 hPa East 12.4 km/h 26.7 km/h 80 % 33.02 mm
16:30 -14.1 °C -15.8 °C 33751.6 hPa ESE 13.5 km/h 31.9 km/h 80 % 45.72 mm
16:35 -14.2 °C -16 °C 33751.6 hPa ESE 18.2 km/h 31.9 km/h 80 % 50.8 mm
16:40 -14.3 °C -15.9 °C 33751.6 hPa East 16.3 km/h 27.7 km/h 81 % 50.8 mm
16:46 -14.4 °C -16.1 °C 33751.6 hPa East 15.3 km/h 29.5 km/h 81 % 50.8 mm
16:51 -14.4 °C -16.1 °C 33751.6 hPa East 18.3 km/h 37 km/h 81 % 58.42 mm
16:56 -14.4 °C -16.1 °C 33751.6 hPa ENE 18.7 km/h 37 km/h 81 % 63.5 mm
17:01 -14.6 °C -16.2 °C 33788.9 hPa ENE 18.7 km/h 34.1 km/h 82 % 63.5 mm
17:06 -14.6 °C -16.2 °C 33788.9 hPa ENE 17.4 km/h 34.1 km/h 82 % 71.12 mm
17:11 -14.7 °C -16.2 °C 33788.9 hPa East 9.8 km/h 25.4 km/h 82 % 63.5 mm
17:16 -14.7 °C -16.3 °C 33788.9 hPa ESE 5.6 km/h 11.1 km/h 82 % 63.5 mm
17:21 -14.8 °C -16.3 °C 33788.9 hPa East 6 km/h 14 km/h 82 % 63.5 mm
17:26 -14.8 °C -16.3 °C 33788.9 hPa East 9.7 km/h 16.9 km/h 83 % 63.5 mm
17:31 -14.9 °C -16.3 °C 33788.9 hPa East 11.4 km/h 16.9 km/h 83 % 71.12 mm
17:37 -14.9 °C -16.3 °C 33788.9 hPa East 9.7 km/h 16.9 km/h 83 % 83.82 mm
17:42 -14.9 °C -16.4 °C 33788.9 hPa ESE 8 km/h 15 km/h 83 % 91.44 mm
17:47 -15 °C -16.5 °C 33751.6 hPa ESE 8.9 km/h 15 km/h 83 % 96.52 mm
17:52 -15 °C -16.4 °C 33751.6 hPa East 8 km/h 22 km/h 84 % 83.82 mm
17:57 -15 °C -16.4 °C 33751.6 hPa ENE 13.2 km/h 33.6 km/h 84 % 96.52 mm
18:02 -15 °C -16.4 °C 33751.6 hPa ENE 17.5 km/h 34.1 km/h 84 % 91.44 mm
18:07 -15.1 °C -16.4 °C 33751.6 hPa ENE 19.5 km/h 49.7 km/h 84 % 91.44 mm
18:12 -15.1 °C -16.5 °C 33751.6 hPa ENE 25.4 km/h 49.7 km/h 84 % 83.82 mm
18:17 -15.1 °C -16.4 °C 33751.6 hPa ENE 25.4 km/h 60.3 km/h 84 % 63.5 mm
18:22 -15.1 °C -16.4 °C 33751.6 hPa ENE 24.8 km/h 60.3 km/h 84 % 58.42 mm
18:27 -15.1 °C -16.5 °C 33751.6 hPa ENE 23.8 km/h 41.2 km/h 84 % 58.42 mm
18:32 -15.2 °C -16.6 °C 33751.6 hPa ENE 20.9 km/h 41.2 km/h 84 % 45.72 mm
18:37 -15.2 °C -16.6 °C 33751.6 hPa ENE 19.6 km/h 38.3 km/h 84 % 38.1 mm
18:42 -15.2 °C -16.6 °C 33751.6 hPa ENE 18.2 km/h 38.3 km/h 84 % 25.4 mm
18:47 -15.2 °C -16.6 °C 33788.9 hPa East 15.6 km/h 27.7 km/h 84 % 33.02 mm
18:52 -15.2 °C -16.7 °C 33788.9 hPa ENE 12.7 km/h 26.7 km/h 83 % 33.02 mm
18:57 -15.2 °C -16.7 °C 33788.9 hPa ENE 14 km/h 28.5 km/h 83 % 38.1 mm
19:03 -15.3 °C -16.7 °C 33788.9 hPa East 11.6 km/h 28.5 km/h 83 % 58.42 mm
19:08 -15.3 °C -16.8 °C 33788.9 hPa East 10.3 km/h 31.9 km/h 83 % 63.5 mm
19:13 -15.3 °C -16.8 °C 33788.9 hPa ENE 14 km/h 31.9 km/h 83 % 71.12 mm
19:18 -15.3 °C -16.8 °C 33788.9 hPa ENE 15.8 km/h 28.5 km/h 83 % 76.2 mm
19:23 -15.3 °C -16.8 °C 33788.9 hPa ENE 13.7 km/h 27.7 km/h 83 % 83.82 mm
19:28 -15.3 °C -16.8 °C 33822.8 hPa ENE 10.1 km/h 25.4 km/h 83 % 83.82 mm
19:33 -15.4 °C -16.9 °C 33822.8 hPa ENE 9.8 km/h 26.7 km/h 83 % 83.82 mm
19:38 -15.4 °C -16.9 °C 33822.8 hPa ENE 12.7 km/h 26.7 km/h 83 % 96.52 mm
19:43 -15.5 °C -17 °C 33822.8 hPa ENE 14.8 km/h 25.4 km/h 83 % 96.52 mm
19:48 -15.5 °C -17 °C 33822.8 hPa ENE 12.7 km/h 22 km/h 83 % 96.52 mm
19:53 -15.6 °C -17 °C 33822.8 hPa ENE 12.4 km/h 22.5 km/h 83 % 104.14 mm
19:58 -15.6 °C -17 °C 33822.8 hPa ENE 15 km/h 22.5 km/h 83 % 104.14 mm
20:03 -15.6 °C -17 °C 33822.8 hPa ENE 15.3 km/h 22 km/h 83 % 104.14 mm
20:08 -15.7 °C -17.1 °C 33822.8 hPa ENE 10.3 km/h 22 km/h 84 % 109.22 mm
20:13 -15.7 °C -17.1 °C 33822.8 hPa East 7.2 km/h 15 km/h 84 % 109.22 mm
20:18 -15.8 °C -17.1 °C 33822.8 hPa ENE 8.9 km/h 16.3 km/h 84 % 121.92 mm
20:23 -15.9 °C -17.3 °C 33822.8 hPa ENE 9.8 km/h 16.3 km/h 84 % 121.92 mm
20:28 -15.9 °C -17.3 °C 33822.8 hPa East 10.3 km/h 15.6 km/h 84 % 129.54 mm
20:33 -16.1 °C -17.4 °C 33822.8 hPa ENE 9.8 km/h 17.9 km/h 84 % 134.62 mm
20:38 -16.1 °C -17.4 °C 33822.8 hPa ENE 8.9 km/h 17.9 km/h 84 % 129.54 mm
20:43 -16.1 °C -17.4 °C 33822.8 hPa East 9 km/h 16.9 km/h 84 % 134.62 mm
20:48 -16.2 °C -17.6 °C 33822.8 hPa East 8.9 km/h 16.9 km/h 84 % 147.32 mm
20:53 -16.2 °C -17.5 °C 33822.8 hPa East 9 km/h 15 km/h 85 % 142.24 mm
20:58 -16.3 °C -17.6 °C 33822.8 hPa East 8.5 km/h 15 km/h 85 % 142.24 mm
21:03 -16.3 °C -17.6 °C 33822.8 hPa ESE 5.6 km/h 11.1 km/h 85 % 134.62 mm
21:09 -16.3 °C -17.6 °C 33822.8 hPa ESE 7.2 km/h 20.3 km/h 85 % 129.54 mm
21:14 -16.3 °C -17.6 °C 33822.8 hPa ESE 10.1 km/h 20.3 km/h 85 % 121.92 mm
21:19 -16.4 °C -17.7 °C 33822.8 hPa East 9.8 km/h 19.2 km/h 85 % 116.84 mm
21:24 -16.4 °C -17.7 °C 33822.8 hPa East 8.2 km/h 19.2 km/h 85 % 116.84 mm
21:29 -16.4 °C -17.7 °C 33822.8 hPa ESE 6.8 km/h 20.3 km/h 85 % 109.22 mm
21:34 -16.3 °C -17.5 °C 33822.8 hPa ESE 6.3 km/h 20.3 km/h 86 % 104.14 mm
21:39 -16.3 °C -17.5 °C 33822.8 hPa East 6.8 km/h 16.3 km/h 86 % 96.52 mm
21:44 -16.3 °C -17.4 °C 33822.8 hPa ENE 7.7 km/h 15 km/h 86 % 91.44 mm
21:49 -16.3 °C -17.4 °C 33822.8 hPa ENE 6.9 km/h 16.9 km/h 86 % 76.2 mm
21:54 -16.3 °C -17.4 °C 33822.8 hPa ESE 6.4 km/h 16.9 km/h 86 % 71.12 mm
21:59 -16.3 °C -17.4 °C 33822.8 hPa SE 6.3 km/h 11.1 km/h 86 % 76.2 mm
22:04 -16.3 °C -17.4 °C 33822.8 hPa SSE 3.4 km/h 8.9 km/h 86 % 71.12 mm
22:10 -16.3 °C -17.3 °C 33822.8 hPa SE 3.7 km/h 8.9 km/h 87 % 71.12 mm
22:15 -16.3 °C -17.3 °C 33856.6 hPa SSW 7.2 km/h 17.4 km/h 87 % 63.5 mm
22:21 -16.4 °C -17.6 °C 33856.6 hPa SW 11.1 km/h 17.4 km/h 87 % 63.5 mm
22:25 -16.5 °C -17.6 °C 33856.6 hPa SW 10.9 km/h 16.3 km/h 87 % 71.12 mm
22:31 -16.6 °C -17.6 °C 33856.6 hPa SW 8.5 km/h 12.7 km/h 87 % 71.12 mm
22:36 -16.6 °C -17.7 °C 33856.6 hPa SW 7.7 km/h 12.7 km/h 87 % 63.5 mm
22:41 -16.7 °C -17.7 °C 33856.6 hPa SW 8 km/h 12.7 km/h 87 % 71.12 mm
22:46 -16.7 °C -17.8 °C 33822.8 hPa WSW 8 km/h 12.7 km/h 87 % 71.12 mm
22:51 -16.8 °C -17.8 °C 33822.8 hPa SW 6.9 km/h 9.8 km/h 88 % 71.12 mm
22:56 -16.8 °C -17.8 °C 33822.8 hPa SW 5.5 km/h 9.8 km/h 88 % 71.12 mm
23:01 -16.8 °C -17.8 °C 33856.6 hPa SW 6.3 km/h 12.7 km/h 88 % 71.12 mm
23:06 -16.9 °C -17.9 °C 33856.6 hPa WSW 7.6 km/h 12.7 km/h 88 % 63.5 mm
23:11 -16.9 °C -17.9 °C 33856.6 hPa SW 6.4 km/h 11.1 km/h 88 % 63.5 mm
23:16 -16.9 °C -17.9 °C 33856.6 hPa SW 6.9 km/h 9.3 km/h 88 % 63.5 mm
23:19 -16.9 °C -17.9 °C 33856.6 hPa SW 7.6 km/h 10.3 km/h 88 % 58.42 mm
23:24 -16.9 °C -17.9 °C 33856.6 hPa SW 7.2 km/h 10.3 km/h 88 % 45.72 mm
23:29 -16.9 °C -17.9 °C 33856.6 hPa SW 6 km/h 8.9 km/h 88 % 50.8 mm
23:33 -16.9 °C -17.9 °C 33856.6 hPa SW 4.3 km/h 8 km/h 88 % 45.72 mm
23:37 -16.9 °C -17.9 °C 33856.6 hPa WSW 1.8 km/h 7.6 km/h 88 % 33.02 mm
23:42 -16.9 °C -17.8 °C 33856.6 hPa Calm   3.4 km/h 89 % 45.72 mm
23:43 -16.9 °C -17.8 °C 33856.6 hPa Calm   3.4 km/h 89 % 45.72 mm
23:48 -16.9 °C -17.8 °C 33856.6 hPa Calm   3.4 km/h 89 % 33.02 mm
23:53 -17 °C -17.9 °C 33856.6 hPa Calm     89 % 25.4 mm
23:54 -17 °C -17.9 °C 33856.6 hPa Calm   3.4 km/h 89 % 25.4 mm
23:59 -17 °C -17.9 °C 33822.8 hPa WSW 1.8 km/h 6.4 km/h 89 % 33.02 mm
Vremenska postaja Senovo
Podatki zbrani iz Weather Underground - 3 mb

Script developed by  Jim McMurry - jmcmurry@mwt.net Adapted for the template by  Wim van der Kuil - Leuven-Template.eu

Vremenski podatki so objavljeni na:

European Weather Network

WeatherCloud

Weather Underground

AWEKAS

HAMweather, WeatherForYou, PWS Weather

MapView

Geostik

Slovenia weather network

Oprema, ki se uporablja:

Vremenski program
Cumulus

Vremenski server
Asus

Cumulus

Asus